Atlanta, Nebraska
Current Conditions -  °F | °C
As of 11:15 PM on Tuesday 25 Nov 2014 (Local Time) from KHDE Reporting Station
Scattered Clouds Scattered Clouds  
Wind Chill: 33°   Ceiling: Unl
Heat Index: 40°   Visibility: 10mi
Dew Point: 28°   Wind: 9mph
Humidity: 64%   Direction: 310°NW
Pressure: 29.92"   Gusts: NA
Location:  40.37°N, 99.47°W
Report Text: KHDE 260515Z AUTO 31008KT 10SM SCT120 04/M02 A2992 RMK AO2 T00421020
Loading
Personal Weather Stations






























Interactive Weather Map New forecast layout! Learn more

10-Day Weather Forecast

Advertisements
Track Severe Weather on mobile